Kezdőlap
METAR-TAF:

METAR-TAF

Repülőterek :

Versec, Szerbia

földrajzi szélesség: 45-09N, földrajzi hosszúság: 021-19E, magasság: 83 m

Jelenlegi meteorológiai megfigyelések

A jelentés 10 órával és 28 perccel ezelõtt készült, 15:00 UTC
Délkeleti szél 26 kt széllökések: 47 kt
Hőmérséklet 4°C
Páratartalom 65%
Légköri nyomás 1010 hPa
Látótávolság 10 km, vagy több
Szakadozott felhőzet 4000 lábon

METAR: LYVR 201500Z 13026G47KT 9999 BKN040 04/M02 Q1010 NOSIG

Idő: 02:28 (01:28 UTC)

Előrejelzés

A jelentés 14 órával és 28 perccel ezelõtt készült, 11:00 UTC
Az előrejelzés 20-én 12 óra UTC és 21-én 12 óra UTC között érvényes
Kelet-délkeleti szél 30 kt széllökések: 60 kt
Látótávolság 10 km, vagy több
Szakadozott felhőzet 4000 lábon

TAF: LYVR 201100Z 2012/2112 12030G60KT 9999 BKN040 TX04/2013Z TN02/2106Z

Meteorológiai megfigyelések és előrejelzések több, mint 4000 repülőtéren (METAR és TAF jelentéseket).

A térképen piros és sárga pontok jelzik az elérhető meteorológiai állomásokat.

Mozgassa az egeret a pont fölött, hogy megjelenjen az állomás neve.

Azután kattintson az időjárási megfigyelések és előrejelzések megtekintéséhez.

A térkép megváltoztatása: kattintson a fekete keresztel jelölt zöld gombra ráközelítéshez, a vonallal jelölt zöld gombra távolításhoz, vagy a zöld nyilakra a szomszédos térképek eléréséhez.


METAR-TAF: